createdAt,value
2022-10-03T00:02:07.712Z,4.30
2022-10-03T00:12:49.272Z,3.40
2022-10-03T00:18:20.654Z,2.78
2022-10-03T00:23:36.975Z,3.10
2022-10-03T00:28:44.140Z,4.43
2022-10-03T00:34:04.418Z,4.32
2022-10-03T00:39:31.462Z,4.78
2022-10-03T00:45:02.231Z,4.53
2022-10-03T00:50:31.879Z,4.68
2022-10-03T00:56:08.454Z,6.25
2022-10-03T01:01:46.443Z,5.85
2022-10-03T01:07:08.690Z,6.38
2022-10-03T01:12:15.669Z,5.97
2022-10-03T01:17:47.302Z,5.57
2022-10-03T01:23:02.318Z,5.75
2022-10-03T01:28:48.134Z,5.65
2022-10-03T01:34:13.030Z,5.68
2022-10-03T01:39:42.916Z,5.50
2022-10-03T01:44:44.144Z,6.57
2022-10-03T01:50:05.376Z,6.53
2022-10-03T01:55:32.698Z,6.30
2022-10-03T02:01:01.361Z,7.10
2022-10-03T02:06:08.935Z,7.22
2022-10-03T02:11:11.488Z,7.00
2022-10-03T02:16:39.306Z,7.20
2022-10-03T02:21:53.921Z,5.50
2022-10-03T02:32:29.759Z,7.22
2022-10-03T02:37:46.497Z,6.63
2022-10-03T02:43:18.746Z,7.43
2022-10-03T02:48:48.186Z,7.63
2022-10-03T02:54:23.965Z,7.70
2022-10-03T02:59:49.559Z,7.70
2022-10-03T03:04:59.625Z,9.48
2022-10-03T03:10:19.194Z,8.65
2022-10-03T03:15:20.418Z,8.13
2022-10-03T03:20:54.268Z,8.85
2022-10-03T03:26:30.619Z,8.55
2022-10-03T03:31:49.970Z,8.30
2022-10-03T03:37:00.747Z,8.05
2022-10-03T03:42:01.934Z,7.90
2022-10-03T03:47:21.320Z,8.20
2022-10-03T03:52:35.551Z,6.75
2022-10-03T03:57:52.061Z,7.85
2022-10-03T04:03:07.455Z,6.95
2022-10-03T04:08:12.074Z,7.22
2022-10-03T04:13:22.529Z,6.63
2022-10-03T04:18:58.176Z,6.88
2022-10-03T04:24:21.805Z,6.43
2022-10-03T04:29:43.427Z,6.88
2022-10-03T04:35:09.334Z,6.55
2022-10-03T04:40:45.288Z,7.10
2022-10-03T04:46:40.378Z,7.70
2022-10-03T04:52:03.132Z,6.53
2022-10-03T04:57:35.111Z,7.65
2022-10-03T05:02:52.913Z,6.20
2022-10-03T05:08:23.370Z,6.53
2022-10-03T05:14:03.490Z,6.97
2022-10-03T05:19:36.504Z,6.63
2022-10-03T05:24:58.074Z,6.80
2022-10-03T05:30:08.742Z,6.57
2022-10-03T05:35:19.738Z,6.75
2022-10-03T05:40:24.927Z,6.82
2022-10-03T05:46:02.819Z,7.47
2022-10-03T05:51:39.571Z,7.35
2022-10-03T05:56:53.541Z,6.38
2022-10-03T06:02:00.890Z,7.00
2022-10-03T06:07:23.477Z,7.07
2022-10-03T06:12:54.206Z,7.70
2022-10-03T06:18:08.420Z,7.30
2022-10-03T06:23:37.178Z,7.25
2022-10-03T06:28:51.163Z,8.75
2022-10-03T06:34:28.367Z,8.48
2022-10-03T06:39:51.681Z,9.48
2022-10-03T06:45:13.898Z,8.48
2022-10-03T06:50:36.154Z,8.77
2022-10-03T06:55:52.537Z,7.45
2022-10-03T07:01:04.133Z,7.15
2022-10-03T07:06:20.649Z,7.78
2022-10-03T07:11:57.780Z,6.45
2022-10-03T07:17:23.086Z,7.15
2022-10-03T07:22:47.952Z,7.07
2022-10-03T07:28:15.058Z,7.70
2022-10-03T07:33:29.588Z,7.60
2022-10-03T07:44:09.870Z,7.32
2022-10-03T07:49:34.986Z,9.23
2022-10-03T07:54:54.125Z,8.90
2022-10-03T08:00:17.538Z,10.05
2022-10-03T08:05:56.349Z,9.43
2022-10-03T08:11:22.627Z,8.18
2022-10-03T08:16:31.551Z,8.02
2022-10-03T08:21:51.002Z,7.70
2022-10-03T08:26:55.225Z,7.72
2022-10-03T08:32:15.234Z,7.07
2022-10-03T08:37:52.221Z,8.73
2022-10-03T08:43:32.808Z,7.38
2022-10-03T08:48:56.640Z,7.00
2022-10-03T08:54:08.623Z,6.90
2022-10-03T08:59:31.055Z,7.85
2022-10-03T09:05:26.613Z,6.00
2022-10-03T09:10:55.669Z,5.78
2022-10-03T09:16:29.957Z,4.28
2022-10-03T09:22:17.141Z,4.40
2022-10-03T09:27:37.385Z,3.50
2022-10-03T09:32:56.932Z,2.80
2022-10-03T09:38:22.945Z,3.65
2022-10-03T09:43:42.960Z,3.97
2022-10-03T09:49:09.198Z,3.13
2022-10-03T09:54:23.349Z,2.78
2022-10-03T09:59:27.441Z,2.40
2022-10-03T10:04:56.552Z,2.22
2022-10-03T10:10:16.275Z,2.67
2022-10-03T10:15:36.410Z,1.30
2022-10-03T10:21:08.850Z,1.38
2022-10-03T10:26:48.806Z,1.40
2022-10-03T10:32:17.870Z,1.50
2022-10-03T10:37:58.230Z,1.23
2022-10-03T10:43:26.774Z,1.35
2022-10-03T10:48:52.816Z,1.27
2022-10-03T10:54:06.336Z,1.85
2022-10-03T10:59:46.697Z,1.42
2022-10-03T11:05:29.948Z,1.38
2022-10-03T11:10:39.531Z,1.70
2022-10-03T11:15:54.210Z,1.58
2022-10-03T11:21:35.105Z,1.35
2022-10-03T11:27:10.384Z,1.55
2022-10-03T11:32:42.807Z,1.35
2022-10-03T11:37:57.396Z,1.13
2022-10-03T11:43:27.548Z,1.23
2022-10-03T11:48:39.577Z,1.33
2022-10-03T11:53:43.902Z,0.85
2022-10-03T11:59:26.785Z,1.00
2022-10-03T12:04:42.114Z,1.13
2022-10-03T12:10:14.893Z,0.80
2022-10-03T12:15:44.239Z,0.68
2022-10-03T12:21:11.450Z,1.23
2022-10-03T12:26:19.847Z,1.45
2022-10-03T12:31:39.987Z,1.40
2022-10-03T12:36:53.203Z,1.60
2022-10-03T12:42:23.024Z,1.33
2022-10-03T12:47:54.493Z,2.42
2022-10-03T12:53:15.025Z,1.63
2022-10-03T12:58:34.289Z,1.90
2022-10-03T13:03:52.127Z,1.77
2022-10-03T13:09:11.752Z,1.60
2022-10-03T13:14:41.314Z,1.75
2022-10-03T13:19:58.207Z,2.88
2022-10-03T13:25:21.731Z,1.42
2022-10-03T13:30:32.499Z,1.60
2022-10-03T13:36:01.460Z,1.52
2022-10-03T13:41:15.431Z,1.70
2022-10-03T13:46:25.045Z,1.85
2022-10-03T13:51:39.836Z,1.70
2022-10-03T13:56:45.292Z,1.60
2022-10-03T14:02:00.246Z,1.52
2022-10-03T14:07:18.092Z,1.55
2022-10-03T14:12:51.195Z,1.63
2022-10-03T14:18:12.008Z,1.73
2022-10-03T14:23:25.010Z,1.37
2022-10-03T14:29:01.568Z,2.93
2022-10-03T14:34:35.325Z,2.33
2022-10-03T14:39:56.368Z,2.78
2022-10-03T14:45:03.653Z,1.70
2022-10-03T14:50:06.473Z,1.90
2022-10-03T14:55:18.775Z,1.83
2022-10-03T15:00:45.739Z,2.28
2022-10-03T15:06:10.416Z,3.08
2022-10-03T15:11:16.473Z,1.85
2022-10-03T15:16:21.648Z,1.95
2022-10-03T15:21:26.081Z,2.33
2022-10-03T15:26:32.838Z,2.42
2022-10-03T15:31:39.323Z,2.22
2022-10-03T15:36:45.389Z,2.30
2022-10-03T15:41:55.807Z,1.98
2022-10-03T15:47:04.941Z,2.78
2022-10-03T15:52:20.417Z,2.28
2022-10-03T15:57:27.780Z,2.60
2022-10-03T16:02:39.319Z,3.22
2022-10-03T16:07:50.782Z,3.00
2022-10-03T16:13:00.556Z,2.90
2022-10-03T16:18:09.232Z,3.40
2022-10-03T16:23:21.358Z,3.83
2022-10-03T16:28:30.376Z,3.20
2022-10-03T16:33:36.784Z,3.17
2022-10-03T16:38:46.335Z,3.15
2022-10-03T16:44:24.892Z,3.38
2022-10-03T16:49:44.939Z,3.92
2022-10-03T16:54:47.236Z,3.80
2022-10-03T16:59:51.975Z,3.47
2022-10-03T17:05:01.589Z,3.88
2022-10-03T17:10:03.904Z,5.43
2022-10-03T17:15:08.781Z,4.40
2022-10-03T17:20:22.050Z,5.72
2022-10-03T17:25:51.010Z,5.20
2022-10-03T17:30:59.312Z,5.25
2022-10-03T17:36:22.519Z,4.75
2022-10-03T17:41:39.456Z,5.68
2022-10-03T17:46:50.849Z,5.80
2022-10-03T17:51:55.308Z,6.30
2022-10-03T17:57:05.908Z,7.57
2022-10-03T18:02:21.127Z,7.95
2022-10-03T18:07:26.886Z,7.30
2022-10-03T18:12:30.748Z,7.53
2022-10-03T18:17:51.153Z,8.60
2022-10-03T18:23:10.470Z,8.70
2022-10-03T18:28:32.196Z,6.45
2022-10-03T18:33:50.117Z,7.57
2022-10-03T18:38:58.827Z,8.90
2022-10-03T18:44:01.340Z,8.18
2022-10-03T18:49:34.264Z,8.27
2022-10-03T18:54:59.217Z,7.90
2022-10-03T19:00:15.842Z,9.25
2022-10-03T19:05:50.711Z,9.45
2022-10-03T19:11:01.588Z,7.45
2022-10-03T19:16:46.414Z,7.32
2022-10-03T19:26:55.853Z,6.63
2022-10-03T19:32:22.834Z,6.38
2022-10-03T19:37:41.928Z,8.68
2022-10-03T19:42:54.021Z,6.85
2022-10-03T19:48:08.730Z,6.22
2022-10-03T19:53:14.759Z,6.13
2022-10-03T19:58:23.958Z,7.13
2022-10-03T20:03:31.867Z,6.85
2022-10-03T20:08:44.512Z,7.95
2022-10-03T20:13:48.197Z,7.35
2022-10-03T20:18:53.726Z,7.90
2022-10-03T20:23:57.840Z,9.35
2022-10-03T20:29:10.437Z,8.40
2022-10-03T20:34:20.989Z,8.20
2022-10-03T20:39:31.361Z,8.00
2022-10-03T20:45:01.444Z,7.80
2022-10-03T20:50:12.735Z,8.35
2022-10-03T20:55:31.251Z,8.65
2022-10-03T21:00:41.434Z,8.60
2022-10-03T21:05:57.401Z,9.30
2022-10-03T21:11:02.657Z,9.52
2022-10-03T21:16:17.338Z,9.55
2022-10-03T21:21:43.110Z,9.43
2022-10-03T21:27:10.814Z,9.77
2022-10-03T21:32:47.369Z,10.07
2022-10-03T21:38:29.078Z,10.43
2022-10-03T21:43:50.242Z,9.68
2022-10-03T21:49:06.697Z,10.20
2022-10-03T21:54:53.338Z,10.10
2022-10-03T22:00:13.593Z,10.05
2022-10-03T22:05:37.857Z,10.07
2022-10-03T22:10:46.747Z,9.75
2022-10-03T22:16:04.046Z,9.43
2022-10-03T22:21:18.180Z,9.02
2022-10-03T22:26:24.203Z,9.52
2022-10-03T22:31:59.479Z,9.25
2022-10-03T22:37:02.004Z,9.60
2022-10-03T22:42:05.688Z,9.07
2022-10-03T22:47:16.062Z,10.53
2022-10-03T22:52:25.932Z,10.02
2022-10-03T22:57:28.260Z,14.43
2022-10-03T23:02:48.186Z,15.40
2022-10-03T23:08:02.033Z,22.08
2022-10-03T23:13:10.982Z,22.57
2022-10-03T23:18:15.048Z,18.02
2022-10-03T23:23:24.307Z,15.65
2022-10-03T23:28:37.567Z,13.85
2022-10-03T23:33:38.798Z,13.60
2022-10-03T23:38:40.147Z,12.20
2022-10-03T23:43:44.156Z,12.80
2022-10-03T23:48:58.106Z,11.82
2022-10-03T23:54:03.807Z,10.63
2022-10-03T23:59:05.065Z,10.43
